sensor_id;sensor_type;location;lat;lon;timestamp;P1;durP1;ratioP1;P2;durP2;ratioP2
49820;SDS011;36893;52.520;13.450;2022-12-10T00:07:50;4.83;;;2.20;;
49820;SDS011;36893;52.520;13.450;2022-12-10T00:17:50;7.50;;;2.27;;
49820;SDS011;36893;52.520;13.450;2022-12-10T00:27:51;4.67;;;1.67;;
49820;SDS011;36893;52.520;13.450;2022-12-10T00:37:51;4.17;;;1.77;;
49820;SDS011;36893;52.520;13.450;2022-12-10T00:47:52;4.93;;;2.17;;
49820;SDS011;36893;52.520;13.450;2022-12-10T00:57:53;4.37;;;2.00;;
49820;SDS011;36893;52.520;13.450;2022-12-10T01:07:53;3.87;;;1.93;;
49820;SDS011;36893;52.520;13.450;2022-12-10T01:17:54;4.37;;;1.90;;
49820;SDS011;36893;52.520;13.450;2022-12-10T01:27:56;5.23;;;2.40;;
49820;SDS011;36893;52.520;13.450;2022-12-10T01:37:57;3.38;;;1.70;;
49820;SDS011;36893;52.520;13.450;2022-12-10T01:47:57;3.73;;;1.67;;
49820;SDS011;36893;52.520;13.450;2022-12-10T01:57:58;3.07;;;1.67;;
49820;SDS011;36893;52.520;13.450;2022-12-10T02:18:20;4.13;;;2.38;;
49820;SDS011;36893;52.520;13.450;2022-12-10T02:28:39;3.97;;;1.52;;
49820;SDS011;36893;52.520;13.450;2022-12-10T02:39:08;3.78;;;1.85;;
49820;SDS011;36893;52.520;13.450;2022-12-10T02:59:16;3.20;;;1.50;;
49820;SDS011;36893;52.520;13.450;2022-12-10T03:09:32;2.28;;;1.20;;
49820;SDS011;36893;52.520;13.450;2022-12-10T03:19:41;4.00;;;1.80;;
49820;SDS011;36893;52.520;13.450;2022-12-10T03:29:49;2.23;;;1.30;;
49820;SDS011;36893;52.520;13.450;2022-12-10T03:39:52;2.90;;;1.58;;
49820;SDS011;36893;52.520;13.450;2022-12-10T03:49:53;3.30;;;1.67;;
49820;SDS011;36893;52.520;13.450;2022-12-10T03:59:53;2.80;;;1.23;;
49820;SDS011;36893;52.520;13.450;2022-12-10T04:09:54;5.27;;;1.97;;
49820;SDS011;36893;52.520;13.450;2022-12-10T04:19:55;4.53;;;1.63;;
49820;SDS011;36893;52.520;13.450;2022-12-10T04:29:56;2.57;;;1.20;;
49820;SDS011;36893;52.520;13.450;2022-12-10T04:39:57;2.67;;;1.40;;
49820;SDS011;36893;52.520;13.450;2022-12-10T04:49:58;2.30;;;1.23;;
49820;SDS011;36893;52.520;13.450;2022-12-10T04:59:59;3.70;;;1.53;;
49820;SDS011;36893;52.520;13.450;2022-12-10T05:09:59;2.87;;;1.27;;
49820;SDS011;36893;52.520;13.450;2022-12-10T05:20:00;1.43;;;1.20;;
49820;SDS011;36893;52.520;13.450;2022-12-10T05:30:01;2.35;;;1.30;;
49820;SDS011;36893;52.520;13.450;2022-12-10T05:40:02;2.40;;;1.33;;
49820;SDS011;36893;52.520;13.450;2022-12-10T05:50:03;1.45;;;0.82;;
49820;SDS011;36893;52.520;13.450;2022-12-10T06:00:04;3.45;;;1.48;;
49820;SDS011;36893;52.520;13.450;2022-12-10T06:10:06;2.17;;;1.23;;
49820;SDS011;36893;52.520;13.450;2022-12-10T06:20:07;2.25;;;1.02;;
49820;SDS011;36893;52.520;13.450;2022-12-10T06:30:08;2.10;;;1.10;;
49820;SDS011;36893;52.520;13.450;2022-12-10T06:40:10;2.85;;;1.17;;
49820;SDS011;36893;52.520;13.450;2022-12-10T06:50:11;3.67;;;1.40;;
49820;SDS011;36893;52.520;13.450;2022-12-10T07:00:12;2.03;;;1.00;;
49820;SDS011;36893;52.520;13.450;2022-12-10T07:10:13;1.45;;;1.05;;
49820;SDS011;36893;52.520;13.450;2022-12-10T07:20:14;2.67;;;1.50;;
49820;SDS011;36893;52.520;13.450;2022-12-10T07:30:15;1.43;;;0.90;;
49820;SDS011;36893;52.520;13.450;2022-12-10T07:40:16;2.47;;;1.40;;
49820;SDS011;36893;52.520;13.450;2022-12-10T07:50:16;1.95;;;0.93;;
49820;SDS011;36893;52.520;13.450;2022-12-10T08:00:17;1.47;;;1.10;;
49820;SDS011;36893;52.520;13.450;2022-12-10T08:10:18;2.42;;;1.27;;
49820;SDS011;36893;52.520;13.450;2022-12-10T08:20:19;2.45;;;1.17;;
49820;SDS011;36893;52.520;13.450;2022-12-10T08:30:20;2.33;;;1.00;;
49820;SDS011;36893;52.520;13.450;2022-12-10T08:40:21;4.07;;;1.08;;
49820;SDS011;36893;52.520;13.450;2022-12-10T08:50:21;2.00;;;1.10;;
49820;SDS011;36893;52.520;13.450;2022-12-10T09:00:22;2.20;;;1.20;;
49820;SDS011;36893;52.520;13.450;2022-12-10T09:10:24;2.63;;;0.93;;
49820;SDS011;36893;52.520;13.450;2022-12-10T09:20:25;3.87;;;1.20;;
49820;SDS011;36893;52.520;13.450;2022-12-10T09:30:25;2.33;;;1.30;;
49820;SDS011;36893;52.520;13.450;2022-12-10T09:40:33;2.35;;;0.98;;
49820;SDS011;36893;52.520;13.450;2022-12-10T10:00:58;1.27;;;0.80;;
49820;SDS011;36893;52.520;13.450;2022-12-10T10:11:02;2.10;;;1.17;;
49820;SDS011;36893;52.520;13.450;2022-12-10T10:21:04;2.10;;;0.95;;
49820;SDS011;36893;52.520;13.450;2022-12-10T10:31:25;1.73;;;0.82;;
49820;SDS011;36893;52.520;13.450;2022-12-10T10:41:29;1.80;;;1.00;;
49820;SDS011;36893;52.520;13.450;2022-12-10T10:51:42;1.10;;;0.90;;
49820;SDS011;36893;52.520;13.450;2022-12-10T11:01:49;2.60;;;1.52;;
49820;SDS011;36893;52.520;13.450;2022-12-10T11:12:00;1.65;;;1.02;;
49820;SDS011;36893;52.520;13.450;2022-12-10T11:22:19;2.00;;;1.23;;
49820;SDS011;36893;52.520;13.450;2022-12-10T11:32:37;2.30;;;1.23;;
49820;SDS011;36893;52.520;13.450;2022-12-10T12:25:08;1.50;;;0.98;;
49820;SDS011;36893;52.520;13.450;2022-12-10T12:35:44;3.00;;;1.42;;
49820;SDS011;36893;52.520;13.450;2022-12-10T12:45:59;2.08;;;1.10;;
49820;SDS011;36893;52.520;13.450;2022-12-10T12:56:07;3.63;;;1.80;;
49820;SDS011;36893;52.520;13.450;2022-12-10T13:06:35;3.90;;;1.63;;
49820;SDS011;36893;52.520;13.450;2022-12-10T13:47:47;9.65;;;2.97;;
49820;SDS011;36893;52.520;13.450;2022-12-10T13:57:53;7.18;;;3.60;;
49820;SDS011;36893;52.520;13.450;2022-12-10T14:08:31;8.20;;;4.00;;
49820;SDS011;36893;52.520;13.450;2022-12-10T14:18:34;8.95;;;4.22;;
49820;SDS011;36893;52.520;13.450;2022-12-10T14:28:40;6.20;;;3.30;;
49820;SDS011;36893;52.520;13.450;2022-12-10T14:38:44;10.18;;;3.85;;
49820;SDS011;36893;52.520;13.450;2022-12-10T14:48:48;8.00;;;4.18;;
49820;SDS011;36893;52.520;13.450;2022-12-10T15:09:22;9.88;;;5.13;;
49820;SDS011;36893;52.520;13.450;2022-12-10T15:29:30;7.93;;;3.78;;
49820;SDS011;36893;52.520;13.450;2022-12-10T15:39:36;8.50;;;4.03;;
49820;SDS011;36893;52.520;13.450;2022-12-10T15:49:48;9.23;;;4.60;;
49820;SDS011;36893;52.520;13.450;2022-12-10T15:59:51;6.32;;;3.35;;
49820;SDS011;36893;52.520;13.450;2022-12-10T16:09:54;7.43;;;3.83;;
49820;SDS011;36893;52.520;13.450;2022-12-10T16:30:42;7.00;;;3.38;;
49820;SDS011;36893;52.520;13.450;2022-12-10T16:40:46;7.47;;;3.33;;
49820;SDS011;36893;52.520;13.450;2022-12-10T16:50:49;7.97;;;3.53;;
49820;SDS011;36893;52.520;13.450;2022-12-10T17:00:52;8.00;;;3.70;;
49820;SDS011;36893;52.520;13.450;2022-12-10T17:10:54;9.32;;;3.40;;
49820;SDS011;36893;52.520;13.450;2022-12-10T17:21:15;9.68;;;3.45;;
49820;SDS011;36893;52.520;13.450;2022-12-10T17:31:15;7.03;;;2.70;;
49820;SDS011;36893;52.520;13.450;2022-12-10T17:41:16;8.67;;;3.13;;
49820;SDS011;36893;52.520;13.450;2022-12-10T17:51:16;7.90;;;3.20;;
49820;SDS011;36893;52.520;13.450;2022-12-10T18:01:18;6.90;;;3.33;;
49820;SDS011;36893;52.520;13.450;2022-12-10T18:11:22;4.70;;;2.57;;
49820;SDS011;36893;52.520;13.450;2022-12-10T18:21:27;5.82;;;2.95;;
49820;SDS011;36893;52.520;13.450;2022-12-10T18:31:29;9.02;;;3.13;;
49820;SDS011;36893;52.520;13.450;2022-12-10T18:41:35;6.63;;;2.53;;
49820;SDS011;36893;52.520;13.450;2022-12-10T18:51:39;5.00;;;2.77;;
49820;SDS011;36893;52.520;13.450;2022-12-10T19:01:40;5.93;;;2.83;;
49820;SDS011;36893;52.520;13.450;2022-12-10T19:11:41;6.65;;;2.55;;
49820;SDS011;36893;52.520;13.450;2022-12-10T19:21:44;6.68;;;2.35;;
49820;SDS011;36893;52.520;13.450;2022-12-10T19:31:45;7.82;;;3.15;;
49820;SDS011;36893;52.520;13.450;2022-12-10T19:41:48;5.10;;;2.65;;
49820;SDS011;36893;52.520;13.450;2022-12-10T19:51:50;5.38;;;2.95;;
49820;SDS011;36893;52.520;13.450;2022-12-10T20:01:51;5.00;;;2.15;;
49820;SDS011;36893;52.520;13.450;2022-12-10T20:11:53;5.85;;;2.35;;
49820;SDS011;36893;52.520;13.450;2022-12-10T20:21:54;5.20;;;2.38;;
49820;SDS011;36893;52.520;13.450;2022-12-10T20:31:55;6.03;;;2.90;;
49820;SDS011;36893;52.520;13.450;2022-12-10T20:41:57;8.90;;;2.90;;
49820;SDS011;36893;52.520;13.450;2022-12-10T20:51:58;4.65;;;2.15;;
49820;SDS011;36893;52.520;13.450;2022-12-10T21:02:00;6.13;;;2.90;;
49820;SDS011;36893;52.520;13.450;2022-12-10T21:12:01;6.93;;;2.38;;
49820;SDS011;36893;52.520;13.450;2022-12-10T21:22:02;4.72;;;2.20;;
49820;SDS011;36893;52.520;13.450;2022-12-10T21:32:03;5.57;;;2.78;;
49820;SDS011;36893;52.520;13.450;2022-12-10T21:42:04;6.20;;;2.53;;
49820;SDS011;36893;52.520;13.450;2022-12-10T21:52:23;6.70;;;3.00;;
49820;SDS011;36893;52.520;13.450;2022-12-10T22:02:24;6.63;;;2.97;;
49820;SDS011;36893;52.520;13.450;2022-12-10T22:12:24;5.93;;;3.00;;
49820;SDS011;36893;52.520;13.450;2022-12-10T22:22:27;7.25;;;2.63;;
49820;SDS011;36893;52.520;13.450;2022-12-10T22:32:28;9.00;;;3.07;;
49820;SDS011;36893;52.520;13.450;2022-12-10T22:42:31;5.83;;;2.90;;
49820;SDS011;36893;52.520;13.450;2022-12-10T22:52:33;8.95;;;2.65;;
49820;SDS011;36893;52.520;13.450;2022-12-10T23:02:35;11.03;;;3.13;;
49820;SDS011;36893;52.520;13.450;2022-12-10T23:12:36;6.55;;;2.80;;
49820;SDS011;36893;52.520;13.450;2022-12-10T23:22:55;5.65;;;2.40;;
49820;SDS011;36893;52.520;13.450;2022-12-10T23:32:56;4.82;;;2.92;;
49820;SDS011;36893;52.520;13.450;2022-12-10T23:42:56;6.17;;;2.13;;
49820;SDS011;36893;52.520;13.450;2022-12-10T23:52:58;9.02;;;2.95;;
